DAL2485 MGGT-MHTG
Flight info
| Callsign | DAL2485 |
|---|---|
| Flight time | 0h 43m |
| Altitude | 29000 |
| Route | PALEN DCT LAGOX UA552 NAGEL DCT VITAN VITAN1A |
| Aircraft | E75L/M-SDE3GILORVW/S |
Departure
| Time | 2026-04-22 00:48 |
|---|---|
| Airport | La Aurora International Airport (MGGT) |
Arrival
| Time | 2026-04-22 01:31 |
|---|---|
| Airport | Toncontín Airport (MHTG) |
| Time | Latitude | Longitude | Altitude | Speed | Heading |
|---|---|---|---|---|---|
| 2026-04-22 00:14 | 14.59041 | -90.52831 | 4918 ft | 0 kts | 287° |
| 2026-04-22 00:32 | 14.59039 | -90.52824 | 4918 ft | 2 kts | 287° |
| 2026-04-22 00:32 | 14.59034 | -90.52809 | 4918 ft | 2 kts | 287° |
| 2026-04-22 00:32 | 14.59030 | -90.52795 | 4918 ft | 2 kts | 287° |
| 2026-04-22 00:33 | 14.59026 | -90.52780 | 4918 ft | 2 kts | 287° |
| 2026-04-22 00:33 | 14.59022 | -90.52769 | 4918 ft | 0 kts | 287° |
| 2026-04-22 00:33 | 14.59020 | -90.52756 | 4918 ft | 2 kts | 265° |
| 2026-04-22 00:33 | 14.59024 | -90.52741 | 4918 ft | 2 kts | 238° |
| 2026-04-22 00:34 | 14.59034 | -90.52731 | 4918 ft | 2 kts | 213° |
| 2026-04-22 00:34 | 14.59044 | -90.52726 | 4918 ft | 0 kts | 197° |
| 2026-04-22 00:34 | 14.59045 | -90.52726 | 4918 ft | 0 kts | 197° |
| 2026-04-22 00:39 | 14.59029 | -90.52731 | 4918 ft | 6 kts | 198° |
| 2026-04-22 00:39 | 14.58960 | -90.52753 | 4916 ft | 14 kts | 198° |
| 2026-04-22 00:39 | 14.58864 | -90.52783 | 4914 ft | 15 kts | 196° |
| 2026-04-22 00:39 | 14.58754 | -90.52817 | 4911 ft | 15 kts | 188° |
| 2026-04-22 00:40 | 14.58694 | -90.52774 | 4909 ft | 7 kts | 107° |
| 2026-04-22 00:40 | 14.58679 | -90.52724 | 4909 ft | 7 kts | 117° |
| 2026-04-22 00:40 | 14.58631 | -90.52718 | 4908 ft | 8 kts | 197° |
| 2026-04-22 00:40 | 14.58559 | -90.52741 | 4905 ft | 12 kts | 197° |
| 2026-04-22 00:41 | 14.58466 | -90.52771 | 4903 ft | 15 kts | 197° |
| 2026-04-22 00:41 | 14.58352 | -90.52807 | 4898 ft | 19 kts | 196° |
| 2026-04-22 00:41 | 14.58216 | -90.52855 | 4895 ft | 21 kts | 199° |
| 2026-04-22 00:41 | 14.58066 | -90.52901 | 4892 ft | 23 kts | 197° |
| 2026-04-22 00:42 | 14.57903 | -90.52953 | 4891 ft | 24 kts | 198° |
| 2026-04-22 00:42 | 14.57736 | -90.53006 | 4890 ft | 25 kts | 197° |
| 2026-04-22 00:42 | 14.57569 | -90.53060 | 4891 ft | 25 kts | 198° |
| 2026-04-22 00:42 | 14.57399 | -90.53115 | 4892 ft | 25 kts | 198° |
| 2026-04-22 00:43 | 14.57229 | -90.53170 | 4892 ft | 25 kts | 198° |
| 2026-04-22 00:43 | 14.57112 | -90.53207 | 4892 ft | 10 kts | 197° |
| 2026-04-22 00:43 | 14.57098 | -90.53209 | 4892 ft | 0 kts | 178° |
| 2026-04-22 00:44 | 14.57091 | -90.53208 | 4892 ft | 3 kts | 177° |
| 2026-04-22 00:44 | 14.57067 | -90.53185 | 4892 ft | 6 kts | 114° |
| 2026-04-22 00:45 | 14.57082 | -90.53139 | 4892 ft | 7 kts | 13° |
| 2026-04-22 00:45 | 14.57104 | -90.53140 | 4892 ft | 5 kts | 8° |
| 2026-04-22 00:45 | 14.57108 | -90.53140 | 4892 ft | 0 kts | 15° |
| 2026-04-22 00:47 | 14.57109 | -90.53139 | 4892 ft | 1 kts | 15° |
| 2026-04-22 00:47 | 14.57267 | -90.53088 | 4892 ft | 53 kts | 18° |
| 2026-04-22 00:47 | 14.57816 | -90.52915 | 4891 ft | 107 kts | 17° |
| 2026-04-22 00:48 | 14.58682 | -90.52632 | 4910 ft | 149 kts | 19° |
| 2026-04-22 00:48 | 14.59713 | -90.52298 | 5246 ft | 156 kts | 19° |
| 2026-04-22 00:48 | 14.60743 | -90.51945 | 5757 ft | 158 kts | 19° |
| 2026-04-22 00:48 | 14.61811 | -90.51577 | 6248 ft | 164 kts | 20° |
| 2026-04-22 00:49 | 14.62952 | -90.51217 | 6385 ft | 179 kts | 18° |
| 2026-04-22 00:49 | 14.64200 | -90.50757 | 6447 ft | 192 kts | 35° |
| 2026-04-22 00:49 | 14.64937 | -90.49555 | 6474 ft | 221 kts | 78° |
| 2026-04-22 00:49 | 14.65071 | -90.47898 | 6844 ft | 242 kts | 84° |
| 2026-04-22 00:50 | 14.65163 | -90.46157 | 7599 ft | 243 kts | 84° |
| 2026-04-22 00:50 | 14.65245 | -90.44441 | 8289 ft | 247 kts | 85° |
| 2026-04-22 00:50 | 14.65329 | -90.42570 | 8591 ft | 269 kts | 85° |
| 2026-04-22 00:50 | 14.65415 | -90.40602 | 9013 ft | 283 kts | 86° |
| 2026-04-22 00:51 | 14.65502 | -90.38545 | 9634 ft | 289 kts | 86° |
| 2026-04-22 00:51 | 14.65589 | -90.36489 | 10354 ft | 290 kts | 86° |
| 2026-04-22 00:51 | 14.65677 | -90.34407 | 11003 ft | 293 kts | 86° |
| 2026-04-22 00:51 | 14.65765 | -90.32263 | 11521 ft | 301 kts | 88° |
| 2026-04-22 00:52 | 14.65359 | -90.30126 | 11943 ft | 314 kts | 116° |
| 2026-04-22 00:52 | 14.64148 | -90.28221 | 12398 ft | 323 kts | 124° |
| 2026-04-22 00:52 | 14.62838 | -90.26314 | 12933 ft | 329 kts | 124° |
| 2026-04-22 00:52 | 14.61509 | -90.24380 | 13543 ft | 331 kts | 124° |
| 2026-04-22 00:53 | 14.60174 | -90.22438 | 14176 ft | 332 kts | 124° |
| 2026-04-22 00:53 | 14.58828 | -90.20478 | 14778 ft | 334 kts | 124° |
| 2026-04-22 00:53 | 14.57475 | -90.18508 | 15322 ft | 337 kts | 124° |
| 2026-04-22 00:53 | 14.56119 | -90.16536 | 15845 ft | 340 kts | 124° |
| 2026-04-22 00:54 | 14.54759 | -90.14557 | 16336 ft | 343 kts | 124° |
| 2026-04-22 00:54 | 14.53367 | -90.12532 | 16849 ft | 345 kts | 124° |
| 2026-04-22 00:54 | 14.51973 | -90.10505 | 17330 ft | 348 kts | 124° |
| 2026-04-22 00:54 | 14.50577 | -90.08458 | 17815 ft | 350 kts | 121° |
| 2026-04-22 00:55 | 14.49718 | -90.06122 | 18224 ft | 352 kts | 100° |
| 2026-04-22 00:55 | 14.49303 | -90.03622 | 18649 ft | 356 kts | 99° |
| 2026-04-22 00:55 | 14.48492 | -89.98550 | 19532 ft | 362 kts | 99° |
| 2026-04-22 00:56 | 14.48079 | -89.95960 | 19973 ft | 364 kts | 99° |
| 2026-04-22 00:56 | 14.47666 | -89.93369 | 20389 ft | 368 kts | 99° |
| 2026-04-22 00:56 | 14.47253 | -89.90777 | 20788 ft | 371 kts | 99° |
| 2026-04-22 00:56 | 14.46835 | -89.88153 | 21188 ft | 374 kts | 99° |
| 2026-04-22 00:57 | 14.46413 | -89.85511 | 21567 ft | 377 kts | 99° |
| 2026-04-22 00:57 | 14.45985 | -89.82830 | 21960 ft | 379 kts | 99° |
| 2026-04-22 00:57 | 14.45552 | -89.80123 | 22336 ft | 382 kts | 99° |
| 2026-04-22 00:57 | 14.45121 | -89.77428 | 22713 ft | 385 kts | 99° |
| 2026-04-22 00:58 | 14.44680 | -89.74674 | 23101 ft | 387 kts | 99° |
| 2026-04-22 00:58 | 14.44243 | -89.71944 | 23470 ft | 390 kts | 99° |
| 2026-04-22 00:58 | 14.43798 | -89.69167 | 23841 ft | 392 kts | 99° |
| 2026-04-22 00:58 | 14.43355 | -89.66406 | 24197 ft | 395 kts | 99° |
| 2026-04-22 00:59 | 14.42901 | -89.63581 | 24547 ft | 398 kts | 99° |
| 2026-04-22 00:59 | 14.42451 | -89.60777 | 24888 ft | 400 kts | 100° |
| 2026-04-22 00:59 | 14.41991 | -89.57917 | 25229 ft | 402 kts | 100° |
| 2026-04-22 00:59 | 14.41533 | -89.55067 | 25566 ft | 405 kts | 100° |
| 2026-04-22 01:00 | 14.41075 | -89.52224 | 25899 ft | 407 kts | 99° |
| 2026-04-22 01:00 | 14.40606 | -89.49315 | 26226 ft | 409 kts | 100° |
| 2026-04-22 01:00 | 14.40414 | -89.48121 | 26359 ft | 410 kts | 100° |
| 2026-04-22 01:01 | 14.40162 | -89.46562 | 26516 ft | 411 kts | 100° |
| 2026-04-22 01:01 | 14.39688 | -89.43627 | 26806 ft | 414 kts | 100° |
| 2026-04-22 01:01 | 14.39220 | -89.40730 | 27102 ft | 416 kts | 100° |
| 2026-04-22 01:02 | 14.38744 | -89.37783 | 27403 ft | 418 kts | 100° |
| 2026-04-22 01:02 | 14.38262 | -89.34804 | 27704 ft | 420 kts | 100° |
| 2026-04-22 01:02 | 14.37781 | -89.31831 | 28002 ft | 422 kts | 100° |
| 2026-04-22 01:02 | 14.37293 | -89.28825 | 28307 ft | 423 kts | 100° |
| 2026-04-22 01:03 | 14.36812 | -89.25859 | 28598 ft | 425 kts | 100° |
| 2026-04-22 01:03 | 14.36326 | -89.22859 | 28890 ft | 426 kts | 100° |
| 2026-04-22 01:03 | 14.35830 | -89.19812 | 29094 ft | 430 kts | 100° |
| 2026-04-22 01:03 | 14.35330 | -89.16735 | 29119 ft | 437 kts | 100° |
| 2026-04-22 01:04 | 14.34306 | -89.10461 | 29120 ft | 452 kts | 100° |
| 2026-04-22 01:04 | 14.33250 | -89.03997 | 29128 ft | 459 kts | 100° |
| 2026-04-22 01:05 | 14.32185 | -88.97492 | 29130 ft | 458 kts | 100° |
| 2026-04-22 01:05 | 14.31128 | -88.91045 | 29141 ft | 458 kts | 100° |
| 2026-04-22 01:06 | 14.30067 | -88.84589 | 29141 ft | 458 kts | 100° |
| 2026-04-22 01:06 | 14.28998 | -88.78098 | 29128 ft | 458 kts | 100° |
| 2026-04-22 01:07 | 14.27936 | -88.71658 | 29130 ft | 458 kts | 100° |
| 2026-04-22 01:07 | 14.26870 | -88.65202 | 29163 ft | 457 kts | 100° |
| 2026-04-22 01:08 | 14.25258 | -88.58903 | 29206 ft | 455 kts | 114° |
| 2026-04-22 01:08 | 14.22558 | -88.53023 | 29225 ft | 455 kts | 115° |
| 2026-04-22 01:09 | 14.19832 | -88.47102 | 29231 ft | 455 kts | 115° |
| 2026-04-22 01:09 | 14.17156 | -88.41291 | 29212 ft | 442 kts | 115° |
| 2026-04-22 01:10 | 14.14535 | -88.35603 | 29206 ft | 438 kts | 115° |
| 2026-04-22 01:10 | 14.11917 | -88.29928 | 28687 ft | 439 kts | 115° |
| 2026-04-22 01:11 | 14.10614 | -88.27103 | 28218 ft | 436 kts | 115° |
| 2026-04-22 01:11 | 14.09320 | -88.24300 | 27732 ft | 432 kts | 115° |
| 2026-04-22 01:11 | 14.08021 | -88.21487 | 27248 ft | 428 kts | 115° |
| 2026-04-22 01:11 | 14.06743 | -88.18718 | 26772 ft | 425 kts | 115° |
| 2026-04-22 01:12 | 14.05477 | -88.15981 | 26314 ft | 421 kts | 115° |
| 2026-04-22 01:12 | 14.04227 | -88.13277 | 25860 ft | 419 kts | 115° |
| 2026-04-22 01:12 | 14.02975 | -88.10568 | 25414 ft | 416 kts | 115° |
| 2026-04-22 01:12 | 14.01735 | -88.07887 | 24955 ft | 413 kts | 115° |
| 2026-04-22 01:13 | 14.00508 | -88.05238 | 24520 ft | 409 kts | 115° |
| 2026-04-22 01:13 | 13.99299 | -88.02625 | 24086 ft | 406 kts | 115° |
| 2026-04-22 01:13 | 13.98082 | -87.99998 | 23644 ft | 404 kts | 115° |
| 2026-04-22 01:13 | 13.96877 | -87.97395 | 23177 ft | 402 kts | 115° |
| 2026-04-22 01:14 | 13.95677 | -87.94805 | 22727 ft | 398 kts | 116° |
| 2026-04-22 01:14 | 13.94493 | -87.92251 | 22276 ft | 396 kts | 116° |
| 2026-04-22 01:14 | 13.93310 | -87.89702 | 21810 ft | 394 kts | 115° |
| 2026-04-22 01:14 | 13.92144 | -87.87187 | 21360 ft | 390 kts | 115° |
| 2026-04-22 01:15 | 13.90970 | -87.84656 | 20915 ft | 387 kts | 115° |
| 2026-04-22 01:15 | 13.89814 | -87.82166 | 20490 ft | 384 kts | 115° |
| 2026-04-22 01:15 | 13.88667 | -87.79696 | 20050 ft | 382 kts | 115° |
| 2026-04-22 01:15 | 13.87523 | -87.77223 | 19598 ft | 379 kts | 112° |
| 2026-04-22 01:16 | 13.86944 | -87.74643 | 19180 ft | 374 kts | 89° |
| 2026-04-22 01:16 | 13.87378 | -87.72024 | 18785 ft | 370 kts | 73° |
| 2026-04-22 01:16 | 13.88127 | -87.69526 | 18375 ft | 367 kts | 72° |
| 2026-04-22 01:16 | 13.88912 | -87.67008 | 17953 ft | 364 kts | 71° |
| 2026-04-22 01:17 | 13.89677 | -87.64586 | 17569 ft | 359 kts | 71° |
| 2026-04-22 01:17 | 13.90455 | -87.62137 | 17200 ft | 356 kts | 71° |
| 2026-04-22 01:17 | 13.91220 | -87.59730 | 16843 ft | 356 kts | 71° |
| 2026-04-22 01:17 | 13.91989 | -87.57309 | 16455 ft | 353 kts | 71° |
| 2026-04-22 01:18 | 13.92747 | -87.54925 | 16070 ft | 350 kts | 71° |
| 2026-04-22 01:18 | 13.93504 | -87.52544 | 15694 ft | 348 kts | 71° |
| 2026-04-22 01:18 | 13.94253 | -87.50185 | 15312 ft | 346 kts | 71° |
| 2026-04-22 01:18 | 13.94997 | -87.47842 | 14926 ft | 344 kts | 71° |
| 2026-04-22 01:19 | 13.95740 | -87.45501 | 14543 ft | 342 kts | 71° |
| 2026-04-22 01:19 | 13.96476 | -87.43182 | 14164 ft | 340 kts | 71° |
| 2026-04-22 01:19 | 13.97204 | -87.40886 | 13797 ft | 338 kts | 71° |
| 2026-04-22 01:19 | 13.97923 | -87.38615 | 13435 ft | 335 kts | 71° |
| 2026-04-22 01:20 | 13.98642 | -87.36349 | 13065 ft | 332 kts | 71° |
| 2026-04-22 01:20 | 13.99361 | -87.34081 | 12697 ft | 329 kts | 71° |
| 2026-04-22 01:20 | 14.00069 | -87.31843 | 12337 ft | 328 kts | 71° |
| 2026-04-22 01:20 | 14.00760 | -87.29659 | 11973 ft | 318 kts | 71° |
| 2026-04-22 01:21 | 14.01501 | -87.27554 | 11608 ft | 305 kts | 60° |
| 2026-04-22 01:21 | 14.02943 | -87.26033 | 11314 ft | 291 kts | 29° |
| 2026-04-22 01:21 | 14.04841 | -87.25542 | 10976 ft | 285 kts | 1° |
| 2026-04-22 01:21 | 14.06763 | -87.26009 | 10207 ft | 280 kts | 339° |
| 2026-04-22 01:22 | 14.08469 | -87.26837 | 9833 ft | 262 kts | 335° |
| 2026-04-22 01:22 | 14.10035 | -87.27729 | 9583 ft | 248 kts | 332° |
| 2026-04-22 01:22 | 14.11522 | -87.28636 | 9294 ft | 246 kts | 331° |
| 2026-04-22 01:22 | 14.13005 | -87.29575 | 8903 ft | 248 kts | 331° |
| 2026-04-22 01:23 | 14.14276 | -87.30737 | 8597 ft | 248 kts | 300° |
| 2026-04-22 01:23 | 14.14627 | -87.32449 | 8401 ft | 251 kts | 262° |
| 2026-04-22 01:23 | 14.14426 | -87.34270 | 7811 ft | 263 kts | 281° |
| 2026-04-22 01:23 | 14.15223 | -87.35899 | 7468 ft | 246 kts | 323° |
| 2026-04-22 01:24 | 14.16698 | -87.36545 | 7523 ft | 230 kts | 3° |
| 2026-04-22 01:24 | 14.18197 | -87.36028 | 7675 ft | 228 kts | 43° |
| 2026-04-22 01:24 | 14.19035 | -87.34660 | 7760 ft | 230 kts | 70° |
| 2026-04-22 01:24 | 14.19560 | -87.33104 | 7787 ft | 230 kts | 70° |
| 2026-04-22 01:25 | 14.19966 | -87.31506 | 7903 ft | 230 kts | 90° |
| 2026-04-22 01:25 | 14.19437 | -87.29942 | 7975 ft | 240 kts | 127° |
| 2026-04-22 01:25 | 14.18038 | -87.29028 | 7886 ft | 246 kts | 167° |
| 2026-04-22 01:25 | 14.16322 | -87.29197 | 7760 ft | 252 kts | 205° |
| 2026-04-22 01:26 | 14.14898 | -87.30244 | 7533 ft | 254 kts | 219° |
| 2026-04-22 01:26 | 14.13544 | -87.31411 | 7229 ft | 254 kts | 219° |
| 2026-04-22 01:26 | 14.12079 | -87.32401 | 6935 ft | 248 kts | 199° |
| 2026-04-22 01:26 | 14.10412 | -87.32529 | 6546 ft | 240 kts | 159° |
| 2026-04-22 01:27 | 14.09045 | -87.31677 | 6181 ft | 223 kts | 136° |
| 2026-04-22 01:27 | 14.07902 | -87.30654 | 5796 ft | 215 kts | 130° |
| 2026-04-22 01:27 | 14.07031 | -87.29431 | 5454 ft | 205 kts | 121° |
| 2026-04-22 01:27 | 14.06264 | -87.28229 | 5206 ft | 196 kts | 121° |
| 2026-04-22 01:28 | 14.05527 | -87.27074 | 4956 ft | 193 kts | 121° |
| 2026-04-22 01:28 | 14.04799 | -87.25931 | 4582 ft | 185 kts | 121° |
| 2026-04-22 01:28 | 14.04274 | -87.24799 | 4277 ft | 169 kts | 93° |
| 2026-04-22 01:28 | 14.04436 | -87.23682 | 4068 ft | 151 kts | 81° |
| 2026-04-22 01:29 | 14.04511 | -87.22640 | 3797 ft | 140 kts | 83° |
| 2026-04-22 01:29 | 14.04372 | -87.21706 | 3798 ft | 130 kts | 118° |
| 2026-04-22 01:29 | 14.03645 | -87.21085 | 3958 ft | 146 kts | 162° |
| 2026-04-22 01:29 | 14.02642 | -87.21271 | 4152 ft | 157 kts | 223° |
| 2026-04-22 01:30 | 14.02327 | -87.22270 | 4254 ft | 150 kts | 291° |
| 2026-04-22 01:30 | 14.03056 | -87.22991 | 4219 ft | 152 kts | 342° |
| 2026-04-22 01:30 | 14.04078 | -87.22852 | 3896 ft | 160 kts | 41° |
| 2026-04-22 01:30 | 14.04923 | -87.22135 | 3504 ft | 154 kts | 22° |
| 2026-04-22 01:31 | 14.05889 | -87.21790 | 3302 ft | 137 kts | 18° |
| 2026-04-22 01:31 | 14.06578 | -87.21542 | 3270 ft | 70 kts | 19° |
| 2026-04-22 01:31 | 14.06841 | -87.21453 | 3257 ft | 14 kts | 2° |
| 2026-04-22 01:31 | 14.06875 | -87.21496 | 3256 ft | 5 kts | 276° |
| 2026-04-22 01:32 | 14.06853 | -87.21532 | 3256 ft | 7 kts | 201° |
| 2026-04-22 01:32 | 14.06796 | -87.21551 | 3259 ft | 9 kts | 199° |
| 2026-04-22 01:32 | 14.06727 | -87.21580 | 3262 ft | 13 kts | 201° |
| 2026-04-22 01:32 | 14.06618 | -87.21617 | 3268 ft | 19 kts | 199° |
| 2026-04-22 01:33 | 14.06473 | -87.21668 | 3276 ft | 24 kts | 200° |
| 2026-04-22 01:33 | 14.06288 | -87.21731 | 3286 ft | 30 kts | 198° |
| 2026-04-22 01:33 | 14.06120 | -87.21792 | 3293 ft | 15 kts | 196° |
| 2026-04-22 01:33 | 14.06048 | -87.21819 | 3297 ft | 4 kts | 207° |
| 2026-04-22 01:34 | 14.06043 | -87.21840 | 3297 ft | 3 kts | 288° |
| 2026-04-22 01:34 | 14.06053 | -87.21871 | 3295 ft | 5 kts | 290° |
| 2026-04-22 01:34 | 14.06057 | -87.21882 | 3294 ft | 0 kts | 289° |
| 2026-04-22 01:34 | 14.06057 | -87.21883 | 3294 ft | 0 kts | 289° |